Time,TemperatureF,DewpointF,PressureIn,WindDirection,WindDirectionDegrees,WindSpeedMPH,WindSpeedGustMPH,Humidity,HourlyPrecipIn,Conditions,Clouds,dailyrainin,SoftwareType,DateUTC
2013-10-09 00:01:00,46.4,28.3,29.58,North,360,3.0,3.0,49,0.00,,---,0.00,VWS V12.07,2013-10-09 06:01:00,
2013-10-09 00:16:00,46.3,28.2,29.58,North,360,4.0,5.0,49,0.00,,---,0.00,VWS V12.07,2013-10-09 06:16:00,
2013-10-09 00:31:00,46.3,28.7,29.58,North,360,3.0,4.0,50,0.00,,---,0.00,VWS V12.07,2013-10-09 06:31:00,
2013-10-09 00:46:00,45.0,28.5,29.58,North,360,3.0,7.0,52,0.00,,---,0.00,VWS V12.07,2013-10-09 06:46:00,
2013-10-09 01:01:00,45.8,28.7,29.58,North,360,6.0,6.0,51,0.00,,---,0.00,VWS V12.07,2013-10-09 07:01:00,
2013-10-09 01:16:00,46.3,28.7,29.58,SSE,149,6.0,8.0,50,0.00,,---,0.00,VWS V12.07,2013-10-09 07:16:00,
2013-10-09 01:31:00,48.0,27.1,29.58,North,360,6.0,6.0,44,0.00,,---,0.00,VWS V12.07,2013-10-09 07:31:00,
2013-10-09 01:46:00,51.8,27.6,29.55,SSW,203,6.0,12.0,39,0.00,,---,0.00,VWS V12.07,2013-10-09 07:46:00,
2013-10-09 02:01:00,52.7,27.2,29.53,North,360,8.0,11.0,37,0.00,,---,0.00,VWS V12.07,2013-10-09 08:01:00,
2013-10-09 02:16:00,53.1,26.9,29.52,North,360,10.0,14.0,36,0.00,,---,0.00,VWS V12.07,2013-10-09 08:16:00,
2013-10-09 02:31:00,52.9,26.7,29.52,North,360,5.0,11.0,36,0.00,,---,0.00,VWS V12.07,2013-10-09 08:31:00,
2013-10-09 02:46:00,52.9,26.0,29.52,North,360,7.0,14.0,35,0.00,,---,0.00,VWS V12.07,2013-10-09 08:46:00,
2013-10-09 03:01:00,52.3,26.2,29.53,North,360,6.0,11.0,36,0.00,,---,0.00,VWS V12.07,2013-10-09 09:01:00,
2013-10-09 03:16:00,51.7,25.6,29.53,North,360,9.0,18.0,36,0.00,,---,0.00,VWS V12.07,2013-10-09 09:16:00,
2013-10-09 03:31:00,51.5,26.1,29.53,North,360,3.0,7.0,37,0.00,,---,0.00,VWS V12.07,2013-10-09 09:31:00,
2013-10-09 03:46:00,51.4,25.4,29.54,North,360,7.0,15.0,36,0.00,,---,0.00,VWS V12.07,2013-10-09 09:46:00,
2013-10-09 04:01:00,51.3,25.3,29.54,North,360,12.0,21.0,36,0.00,,---,0.00,VWS V12.07,2013-10-09 10:01:00,
2013-10-09 04:16:00,51.0,25.0,29.54,North,360,10.0,21.0,36,0.00,,---,0.00,VWS V12.07,2013-10-09 10:16:00,
2013-10-09 04:31:00,51.0,25.7,29.53,North,360,6.0,11.0,37,0.00,,---,0.00,VWS V12.07,2013-10-09 10:31:00,
2013-10-09 04:46:00,50.6,25.3,29.53,North,360,10.0,11.0,37,0.00,,---,0.00,VWS V12.07,2013-10-09 10:46:00,
2013-10-09 05:01:00,50.1,25.5,29.55,SW,217,2.0,3.0,38,0.00,,---,0.00,VWS V12.07,2013-10-09 11:01:00,
2013-10-09 05:16:00,48.0,26.0,29.58,SE,133,2.0,7.0,42,0.00,,---,0.00,VWS V12.07,2013-10-09 11:16:00,
2013-10-09 05:31:00,45.3,25.8,29.61,SE,128,3.0,5.0,46,0.00,,---,0.00,VWS V12.07,2013-10-09 11:31:00,
2013-10-09 05:46:00,44.3,25.4,29.61,SE,128,1.0,5.0,47,0.00,,---,0.00,VWS V12.07,2013-10-09 11:46:00,
2013-10-09 06:01:00,44.3,25.4,29.61,SE,128,3.0,4.0,47,0.00,,---,0.00,VWS V12.07,2013-10-09 12:01:00,
2013-10-09 06:16:00,43.8,25.4,29.63,SE,128,3.0,6.0,48,0.00,,---,0.00,VWS V12.07,2013-10-09 12:16:00,
2013-10-09 06:31:00,43.8,25.9,29.63,North,360,5.0,5.0,49,0.00,,---,0.00,VWS V12.07,2013-10-09 12:31:00,
2013-10-09 06:46:00,44.7,25.7,29.63,ESE,117,4.0,9.0,47,0.00,,---,0.00,VWS V12.07,2013-10-09 12:46:00,
2013-10-09 07:01:00,43.6,25.7,29.63,SE,146,6.0,7.0,49,0.00,,---,0.00,VWS V12.07,2013-10-09 13:01:00,
2013-10-09 07:16:00,43.4,25.5,29.67,SSE,165,0.0,7.0,49,0.00,,---,0.00,VWS V12.07,2013-10-09 13:16:00,
2013-10-09 07:31:00,43.1,25.7,29.67,North,360,5.0,5.0,50,0.00,,---,0.00,VWS V12.07,2013-10-09 13:31:00,
2013-10-09 07:46:00,44.7,26.2,29.65,North,360,3.0,10.0,48,0.00,,---,0.00,VWS V12.07,2013-10-09 13:46:00,
2013-10-09 08:01:00,45.5,27.0,29.66,SE,125,4.0,5.0,48,0.00,,---,0.00,VWS V12.07,2013-10-09 14:01:00,
2013-10-09 08:16:00,47.4,27.7,29.68,ESE,118,2.0,9.0,46,0.00,,---,0.00,VWS V12.07,2013-10-09 14:16:00,
2013-10-09 08:31:00,47.7,28.5,29.66,ESE,123,1.0,6.0,47,0.00,,---,0.00,VWS V12.07,2013-10-09 14:31:00,
2013-10-09 08:46:00,47.3,28.6,29.69,South,175,7.0,10.0,48,0.00,,---,0.00,VWS V12.07,2013-10-09 14:46:00,
2013-10-09 09:01:00,48.5,29.7,29.67,South,174,4.0,5.0,48,0.00,,---,0.00,VWS V12.07,2013-10-09 15:01:00,
2013-10-09 09:16:00,51.0,30.4,29.67,North,360,2.0,5.0,45,0.00,,---,0.00,VWS V12.07,2013-10-09 15:16:00,
2013-10-09 09:31:00,54.8,29.0,29.64,ESE,118,0.0,0.0,37,0.00,,---,0.00,VWS V12.07,2013-10-09 15:31:00,
2013-10-09 09:46:00,56.5,27.8,29.63,ESE,123,0.0,6.0,33,0.00,,---,0.00,VWS V12.07,2013-10-09 15:46:00,
2013-10-09 10:01:00,56.5,27.8,29.63,SE,130,0.0,2.0,33,0.00,,---,0.00,VWS V12.07,2013-10-09 16:01:00,
2013-10-09 10:16:00,56.1,28.8,29.64,ESE,119,0.0,2.0,35,0.00,,---,0.00,VWS V12.07,2013-10-09 16:16:00,
2013-10-09 10:31:00,56.6,26.3,29.64,ESE,119,0.0,1.0,31,0.00,,---,0.00,VWS V12.07,2013-10-09 16:31:00,
2013-10-09 10:46:00,57.2,26.9,29.65,ESE,117,0.0,6.0,31,0.00,,---,0.00,VWS V12.07,2013-10-09 16:46:00,
2013-10-09 11:01:00,57.2,26.9,29.65,ESE,117,0.0,0.0,31,0.00,,---,0.00,VWS V12.07,2013-10-09 17:01:00,
2013-10-09 11:16:00,57.4,27.0,29.66,ESE,115,0.0,1.0,31,0.00,,---,0.00,VWS V12.07,2013-10-09 17:16:00,
2013-10-09 11:31:00,57.6,30.2,29.65,ESE,115,0.0,0.0,35,0.00,,---,0.00,VWS V12.07,2013-10-09 17:31:00,
2013-10-09 11:46:00,58.6,23.8,29.65,North,360,11.0,16.0,26,0.00,,---,0.00,VWS V12.07,2013-10-09 17:46:00,
2013-10-09 12:01:00,59.0,24.2,29.65,North,360,10.0,17.0,26,0.00,,---,0.00,VWS V12.07,2013-10-09 18:01:00,
2013-10-09 12:16:00,59.7,22.9,29.63,WSW,245,2.0,17.0,24,0.00,,---,0.00,VWS V12.07,2013-10-09 18:16:00,
2013-10-09 12:31:00,60.1,24.2,29.62,North,360,15.0,15.0,25,0.00,,---,0.00,VWS V12.07,2013-10-09 18:31:00,
2013-10-09 12:46:00,59.9,21.0,29.61,North,360,18.0,27.0,22,0.00,,---,0.00,VWS V12.07,2013-10-09 18:46:00,
2013-10-09 13:01:00,59.5,23.7,29.61,North,360,0.0,9.0,25,0.00,,---,0.00,VWS V12.07,2013-10-09 19:01:00,
2013-10-09 13:16:00,60.5,23.5,29.56,North,360,10.0,15.0,24,0.00,,---,0.00,VWS V12.07,2013-10-09 19:16:00,
2013-10-09 13:31:00,60.5,22.5,29.55,North,360,1.0,10.0,23,0.00,,---,0.00,VWS V12.07,2013-10-09 19:31:00,
2013-10-09 13:46:00,60.1,22.2,29.56,South,188,5.0,14.0,23,0.00,,---,0.00,VWS V12.07,2013-10-09 19:46:00,
2013-10-09 14:01:00,59.8,23.9,29.56,South,176,2.0,5.0,25,0.00,,---,0.00,VWS V12.07,2013-10-09 20:01:00,
2013-10-09 14:16:00,60.0,24.1,29.55,South,180,7.0,14.0,25,0.00,,---,0.00,VWS V12.07,2013-10-09 20:16:00,
2013-10-09 14:31:00,60.2,23.3,29.56,North,360,2.0,7.0,24,0.00,,---,0.00,VWS V12.07,2013-10-09 20:31:00,
2013-10-09 14:46:00,60.5,22.5,29.55,North,360,3.0,17.0,23,0.00,,---,0.00,VWS V12.07,2013-10-09 20:46:00,
2013-10-09 15:01:00,60.9,23.9,29.55,North,360,3.0,6.0,24,0.00,,---,0.00,VWS V12.07,2013-10-09 21:01:00,
2013-10-09 15:16:00,60.4,24.4,29.55,North,360,12.0,15.0,25,0.00,,---,0.00,VWS V12.07,2013-10-09 21:16:00,
2013-10-09 15:31:00,60.0,23.1,29.56,North,360,5.0,12.0,24,0.00,,---,0.00,VWS V12.07,2013-10-09 21:31:00,
2013-10-09 15:46:00,60.1,24.2,29.55,North,360,5.0,12.0,25,0.00,,---,0.00,VWS V12.07,2013-10-09 21:46:00,
2013-10-09 16:01:00,59.9,23.0,29.55,North,360,2.0,4.0,24,0.00,,---,0.00,VWS V12.07,2013-10-09 22:01:00,
2013-10-09 16:16:00,62.3,23.0,29.53,North,360,0.0,11.0,22,0.00,,---,0.00,VWS V12.07,2013-10-09 22:16:00,
2013-10-09 16:31:00,62.6,23.2,29.53,ESE,104,0.0,1.0,22,0.00,,---,0.00,VWS V12.07,2013-10-09 22:31:00,
2013-10-09 16:46:00,62.3,23.0,29.53,North,360,5.0,14.0,22,0.00,,---,0.00,VWS V12.07,2013-10-09 22:46:00,
2013-10-09 17:01:00,61.7,23.5,29.53,SSE,148,13.0,13.0,23,0.00,,---,0.00,VWS V12.07,2013-10-09 23:01:00,
2013-10-09 17:16:00,61.1,24.1,29.59,North,360,6.0,13.0,24,0.00,,---,0.00,VWS V12.07,2013-10-09 23:16:00,
2013-10-09 17:31:00,60.4,24.4,29.58,SSE,148,4.0,4.0,25,0.00,,---,0.00,VWS V12.07,2013-10-09 23:31:00,
2013-10-09 17:46:00,59.0,26.0,29.60,SE,130,5.0,15.0,28,0.00,,---,0.00,VWS V12.07,2013-10-09 23:46:00,
2013-10-09 18:01:00,59.0,26.8,29.60,South,186,0.0,0.0,29,0.00,,---,0.00,VWS V12.07,2013-10-10 00:01:00,
2013-10-09 18:16:00,58.2,26.1,29.61,ESE,123,6.0,14.0,29,0.00,,---,0.00,VWS V12.07,2013-10-10 00:16:00,
2013-10-09 18:31:00,56.5,24.6,29.62,South,185,3.0,7.0,29,0.00,,---,0.00,VWS V12.07,2013-10-10 00:31:00,
2013-10-09 18:46:00,54.4,24.4,29.63,South,176,0.0,7.0,31,0.00,,---,0.00,VWS V12.07,2013-10-10 00:46:00,
2013-10-09 19:01:00,51.9,24.4,29.64,North,360,6.0,7.0,34,0.00,,---,0.00,VWS V12.07,2013-10-10 01:01:00,
2013-10-09 19:16:00,52.1,23.2,29.63,South,186,3.0,9.0,32,0.00,,---,0.00,VWS V12.07,2013-10-10 01:16:00,
2013-10-09 19:31:00,50.6,23.3,29.64,North,360,5.0,5.0,34,0.00,,---,0.00,VWS V12.07,2013-10-10 01:31:00,
2013-10-09 19:46:00,50.1,22.8,29.65,SSW,199,4.0,8.0,34,0.00,,---,0.00,VWS V12.07,2013-10-10 01:46:00,
2013-10-09 20:01:00,50.3,23.0,29.65,North,360,6.0,9.0,34,0.00,,---,0.00,VWS V12.07,2013-10-10 02:01:00,
2013-10-09 20:16:00,50.6,23.3,29.65,SSE,165,11.0,17.0,34,0.00,,---,0.00,VWS V12.07,2013-10-10 02:16:00,
2013-10-09 20:31:00,53.8,26.8,29.61,North,360,12.0,15.0,35,0.00,,---,0.00,VWS V12.07,2013-10-10 02:31:00,
2013-10-09 20:46:00,53.1,27.5,29.64,SSE,163,13.0,15.0,37,0.00,,---,0.00,VWS V12.07,2013-10-10 02:46:00,
2013-10-09 21:01:00,53.3,27.7,29.65,South,175,9.0,12.0,37,0.00,,---,0.00,VWS V12.07,2013-10-10 03:01:00,
2013-10-09 21:16:00,52.8,27.9,29.57,North,360,10.0,14.0,38,0.00,,---,0.00,VWS V12.07,2013-10-10 03:16:00,
2013-10-09 21:31:00,52.4,28.2,29.60,North,360,10.0,12.0,39,0.00,,---,0.00,VWS V12.07,2013-10-10 03:31:00,
2013-10-09 21:46:00,51.0,31.5,29.59,North,360,12.0,24.0,47,0.00,,---,0.00,VWS V12.07,2013-10-10 03:46:00,
2013-10-09 22:01:00,49.6,32.2,29.60,North,360,9.0,12.0,51,0.00,,---,0.00,VWS V12.07,2013-10-10 04:01:00,
2013-10-09 22:16:00,49.2,32.3,29.59,North,360,10.0,15.0,52,0.00,,---,0.00,VWS V12.07,2013-10-10 04:16:00,
2013-10-09 22:31:00,49.2,31.9,29.60,North,360,11.0,11.0,51,0.00,,---,0.00,VWS V12.07,2013-10-10 04:31:00,
2013-10-09 22:46:00,49.2,32.3,29.62,North,360,4.0,12.0,52,0.00,,---,0.00,VWS V12.07,2013-10-10 04:46:00,
2013-10-09 23:01:00,50.0,32.1,29.62,SSE,167,4.0,7.0,50,0.00,,---,0.00,VWS V12.07,2013-10-10 05:01:00,
2013-10-09 23:16:00,47.5,36.7,29.65,North,360,11.0,31.0,66,0.01,,---,0.01,VWS V12.07,2013-10-10 05:16:00,
2013-10-09 23:31:00,44.1,37.0,29.65,North,360,8.0,11.0,76,0.03,,---,0.03,VWS V12.07,2013-10-10 05:31:00,
2013-10-09 23:46:00,43.8,37.7,29.64,North,360,6.0,15.0,79,0.03,,---,0.03,VWS V12.07,2013-10-10 05:46:00,